createdAt,value
2022-08-10T00:00:23.805Z,20.12
2022-08-10T00:01:22.745Z,20.10
2022-08-10T00:02:23.627Z,20.08
2022-08-10T00:03:29.922Z,20.06
2022-08-10T00:04:23.100Z,20.04
2022-08-10T00:05:22.634Z,20.01
2022-08-10T00:06:22.743Z,19.99
2022-08-10T00:07:22.725Z,19.97
2022-08-10T00:08:28.910Z,19.95
2022-08-10T00:09:22.623Z,19.94
2022-08-10T00:10:28.975Z,19.92
2022-08-10T00:11:23.899Z,19.90
2022-08-10T00:12:22.674Z,19.88
2022-08-10T00:13:29.894Z,19.87
2022-08-10T00:14:22.533Z,19.85
2022-08-10T00:15:44.079Z,19.83
2022-08-10T00:16:23.573Z,19.81
2022-08-10T00:17:22.856Z,19.80
2022-08-10T00:18:35.873Z,19.78
2022-08-10T00:19:24.051Z,19.77
2022-08-10T00:20:22.719Z,19.76
2022-08-10T00:21:22.469Z,19.75
2022-08-10T00:22:22.507Z,19.74
2022-08-10T00:23:22.428Z,19.72
2022-08-10T00:24:28.686Z,19.71
2022-08-10T00:25:22.398Z,19.70
2022-08-10T00:26:22.655Z,19.69
2022-08-10T00:27:51.913Z,19.68
2022-08-10T00:28:23.377Z,19.67
2022-08-10T00:29:23.304Z,19.66
2022-08-10T00:30:28.669Z,19.65
2022-08-10T00:31:22.339Z,19.64
2022-08-10T00:32:22.318Z,19.62
2022-08-10T00:33:22.337Z,19.61
2022-08-10T00:34:22.316Z,19.60
2022-08-10T00:35:28.527Z,19.59
2022-08-10T00:36:22.281Z,19.58
2022-08-10T00:37:22.491Z,19.56
2022-08-10T00:38:22.268Z,19.54
2022-08-10T00:39:22.285Z,19.53
2022-08-10T00:40:36.853Z,19.52
2022-08-10T00:41:23.700Z,19.50
2022-08-10T00:42:22.527Z,19.49
2022-08-10T00:43:23.095Z,19.48
2022-08-10T00:44:22.150Z,19.47
2022-08-10T00:45:29.671Z,19.46
2022-08-10T00:46:22.138Z,19.46
2022-08-10T00:47:35.673Z,19.46
2022-08-10T00:48:23.608Z,19.45
2022-08-10T00:49:22.138Z,19.45
2022-08-10T00:50:22.115Z,19.44
2022-08-10T00:51:40.298Z,19.43
2022-08-10T00:52:23.592Z,19.43
2022-08-10T00:53:22.047Z,19.42
2022-08-10T00:54:24.554Z,19.41
2022-08-10T00:55:22.027Z,19.41
2022-08-10T00:57:14.130Z,19.40
2022-08-10T00:57:30.240Z,19.40
2022-08-10T00:58:23.123Z,19.40
2022-08-10T00:59:22.271Z,19.40
2022-08-10T01:00:21.972Z,19.40
2022-08-10T01:02:08.314Z,19.40
2022-08-10T01:02:29.548Z,19.39
2022-08-10T01:04:36.312Z,19.39
2022-08-10T01:04:54.509Z,19.39
2022-08-10T01:05:22.903Z,19.38
2022-08-10T01:06:21.962Z,19.38
2022-08-10T01:07:28.245Z,19.36
2022-08-10T01:08:21.872Z,19.35
2022-08-10T01:09:21.879Z,19.34
2022-08-10T01:10:21.833Z,19.33
2022-08-10T01:12:38.894Z,19.31
2022-08-10T01:12:47.018Z,19.30
2022-08-10T01:13:23.575Z,19.29
2022-08-10T01:14:21.886Z,19.29
2022-08-10T01:15:22.058Z,19.28
2022-08-10T01:16:21.740Z,19.27
2022-08-10T01:17:21.784Z,19.26
2022-08-10T01:18:28.010Z,19.25
2022-08-10T01:19:21.741Z,19.24
2022-08-10T01:20:30.023Z,19.23
2022-08-10T01:21:23.184Z,19.23
2022-08-10T01:22:21.695Z,19.22
2022-08-10T01:23:21.670Z,19.22
2022-08-10T01:24:28.027Z,19.22
2022-08-10T01:25:21.634Z,19.22
2022-08-10T01:26:30.963Z,19.21
2022-08-10T01:27:26.991Z,19.20
2022-08-10T01:28:21.603Z,19.18
2022-08-10T01:29:27.979Z,19.16
2022-08-10T01:30:21.940Z,19.14
2022-08-10T01:31:21.547Z,19.13
2022-08-10T01:32:25.580Z,19.12
2022-08-10T01:33:28.814Z,19.10
2022-08-10T01:34:29.668Z,19.09
2022-08-10T01:35:22.619Z,19.08
2022-08-10T01:36:32.493Z,19.07
2022-08-10T01:37:23.353Z,19.05
2022-08-10T01:38:21.757Z,19.03
2022-08-10T01:39:28.831Z,19.01
2022-08-10T01:40:21.483Z,19.00
2022-08-10T01:41:21.470Z,18.99
2022-08-10T01:42:22.522Z,18.97
2022-08-10T01:43:21.410Z,18.97
2022-08-10T01:44:51.281Z,20.07
2022-08-10T01:45:51.272Z,19.63
2022-08-10T01:46:53.147Z,19.33
2022-08-10T01:47:53.344Z,19.15
2022-08-10T01:48:52.205Z,19.05
2022-08-10T01:49:57.575Z,18.99
2022-08-10T01:50:59.252Z,18.95
2022-08-10T01:51:52.787Z,18.93
2022-08-10T01:52:51.195Z,18.91
2022-08-10T01:53:51.191Z,18.89
2022-08-10T01:54:51.163Z,18.88
2022-08-10T01:55:57.479Z,18.87
2022-08-10T01:56:52.294Z,18.85
2022-08-10T01:57:51.470Z,18.84
2022-08-10T01:58:51.194Z,18.83
2022-08-10T02:00:00.558Z,18.82
2022-08-10T02:00:58.977Z,18.82
2022-08-10T02:01:51.111Z,18.81
2022-08-10T02:02:51.099Z,18.80
2022-08-10T02:04:03.785Z,18.80
2022-08-10T02:04:52.567Z,18.79
2022-08-10T02:05:57.390Z,18.79
2022-08-10T02:06:52.251Z,18.78
2022-08-10T02:07:51.041Z,18.78
2022-08-10T02:08:55.900Z,18.77
2022-08-10T02:09:53.789Z,18.77
2022-08-10T02:10:50.982Z,18.76
2022-08-10T02:12:07.017Z,18.76
2022-08-10T02:12:52.442Z,18.75
2022-08-10T02:13:51.982Z,18.75
2022-08-10T02:14:51.193Z,18.75
2022-08-10T02:16:01.336Z,18.74
2022-08-10T02:16:59.114Z,18.74
2022-08-10T02:17:58.125Z,18.73
2022-08-10T02:18:52.414Z,18.72
2022-08-10T02:19:50.845Z,18.70
2022-08-10T02:20:50.879Z,18.69
2022-08-10T02:22:35.616Z,18.68
2022-08-10T02:22:58.473Z,18.67
2022-08-10T02:23:56.892Z,18.66
2022-08-10T02:24:53.267Z,18.65
2022-08-10T02:25:50.777Z,18.64
2022-08-10T02:26:50.892Z,18.62
2022-08-10T02:27:58.508Z,18.61
2022-08-10T02:28:50.752Z,18.59
2022-08-10T02:29:51.935Z,18.57
2022-08-10T02:30:50.737Z,18.56
2022-08-10T02:31:51.477Z,18.54
2022-08-10T02:33:19.046Z,19.61
2022-08-10T02:34:19.016Z,19.17
2022-08-10T02:35:22.374Z,18.87
2022-08-10T02:36:19.007Z,18.69
2022-08-10T02:37:19.019Z,18.58
2022-08-10T02:38:58.179Z,18.51
2022-08-10T02:39:20.041Z,18.46
2022-08-10T02:45:01.478Z,18.44
2022-08-10T02:45:13.466Z,18.41
2022-08-10T02:45:18.213Z,18.40
2022-08-10T02:45:24.229Z,18.37
2022-08-10T02:45:29.145Z,18.38
2022-08-10T02:45:30.731Z,18.36
2022-08-10T02:46:21.367Z,18.36
2022-08-10T02:47:20.396Z,18.36
2022-08-10T02:48:18.887Z,18.35
2022-08-10T02:49:25.180Z,18.34
2022-08-10T02:50:18.887Z,18.33
2022-08-10T02:51:18.832Z,18.32
2022-08-10T02:52:20.123Z,18.31
2022-08-10T02:53:54.674Z,18.30
2022-08-10T02:54:20.119Z,18.29
2022-08-10T02:55:27.226Z,18.28
2022-08-10T02:56:20.307Z,18.27
2022-08-10T02:57:25.106Z,18.26
2022-08-10T02:58:18.737Z,18.24
2022-08-10T02:59:19.409Z,18.23
2022-08-10T03:00:20.186Z,18.22
2022-08-10T03:01:25.055Z,18.21
2022-08-10T03:02:19.770Z,18.20
2022-08-10T03:03:18.671Z,18.20
2022-08-10T03:04:18.965Z,18.19
2022-08-10T03:05:22.591Z,18.19
2022-08-10T03:06:25.249Z,18.19
2022-08-10T03:07:19.667Z,18.19
2022-08-10T03:08:19.639Z,18.19
2022-08-10T03:09:18.631Z,18.19
2022-08-10T03:10:18.622Z,18.18
2022-08-10T03:12:34.944Z,18.18
2022-08-10T03:12:37.359Z,18.17
2022-08-10T03:13:20.051Z,18.16
2022-08-10T03:14:18.550Z,18.15
2022-08-10T03:15:18.597Z,18.13
2022-08-10T03:16:24.800Z,18.13
2022-08-10T03:17:20.330Z,18.12
2022-08-10T03:18:18.480Z,18.11
2022-08-10T03:20:33.825Z,18.11
2022-08-10T03:20:37.373Z,18.10
2022-08-10T03:21:19.984Z,18.09
2022-08-10T03:22:24.755Z,18.09
2022-08-10T03:23:18.727Z,18.08
2022-08-10T03:24:28.382Z,18.08
2022-08-10T03:25:19.911Z,18.07
2022-08-10T03:26:20.508Z,18.06
2022-08-10T03:27:18.441Z,18.06
2022-08-10T03:28:24.807Z,18.05
2022-08-10T03:29:18.405Z,18.05
2022-08-10T03:30:33.454Z,18.05
2022-08-10T03:31:19.861Z,18.05
2022-08-10T03:32:19.299Z,18.05
2022-08-10T03:33:24.758Z,18.05
2022-08-10T03:34:33.277Z,18.05
2022-08-10T03:35:20.751Z,18.05
2022-08-10T03:36:41.559Z,18.05
2022-08-10T03:37:19.250Z,18.06
2022-08-10T03:38:18.236Z,18.06
2022-08-10T03:39:19.338Z,18.07
2022-08-10T03:40:24.521Z,18.08
2022-08-10T03:41:19.694Z,18.09
2022-08-10T03:42:19.159Z,18.10
2022-08-10T03:43:18.203Z,18.11
2022-08-10T03:44:18.158Z,18.11
2022-08-10T03:45:25.435Z,18.12
2022-08-10T03:46:18.137Z,18.12
2022-08-10T03:47:18.494Z,18.12
2022-08-10T03:48:18.135Z,18.12
2022-08-10T03:49:18.369Z,18.12
2022-08-10T03:50:45.480Z,18.12
2022-08-10T03:51:25.319Z,18.13
2022-08-10T03:52:18.884Z,18.13
2022-08-10T03:54:02.716Z,18.14
2022-08-10T03:54:19.018Z,18.14
2022-08-10T03:56:27.189Z,18.14
2022-08-10T03:56:30.342Z,18.14
2022-08-10T03:57:19.493Z,18.13
2022-08-10T03:58:18.139Z,18.13
2022-08-10T03:59:17.953Z,18.13
2022-08-10T04:00:18.264Z,18.13
2022-08-10T04:02:45.385Z,18.13
2022-08-10T04:02:52.384Z,18.13
2022-08-10T04:03:19.876Z,18.14
2022-08-10T04:04:23.671Z,18.14
2022-08-10T04:05:19.372Z,18.14
2022-08-10T04:06:25.592Z,18.14
2022-08-10T04:07:17.877Z,18.13
2022-08-10T04:08:18.235Z,18.13
2022-08-10T04:09:18.896Z,18.13
2022-08-10T04:10:18.074Z,18.13
2022-08-10T04:11:17.810Z,18.13
2022-08-10T04:12:24.130Z,18.12
2022-08-10T04:13:17.774Z,18.12
2022-08-10T04:14:38.250Z,18.12
2022-08-10T04:15:18.770Z,18.13
2022-08-10T04:16:17.744Z,18.14
2022-08-10T04:17:17.754Z,18.15
2022-08-10T04:18:25.931Z,18.15
2022-08-10T04:19:17.685Z,18.16
2022-08-10T04:20:17.672Z,18.17
2022-08-10T04:21:17.682Z,18.17
2022-08-10T04:22:17.685Z,18.17
2022-08-10T04:23:17.692Z,18.16
2022-08-10T04:24:29.790Z,18.16
2022-08-10T04:25:19.366Z,18.16
2022-08-10T04:26:17.644Z,18.16
2022-08-10T04:27:17.620Z,18.15
2022-08-10T04:28:18.842Z,18.15
2022-08-10T04:29:18.651Z,18.15
2022-08-10T04:30:23.863Z,18.15
2022-08-10T04:31:17.931Z,18.15
2022-08-10T04:32:18.555Z,18.15
2022-08-10T04:33:17.578Z,18.15
2022-08-10T04:34:17.533Z,18.16
2022-08-10T04:35:17.787Z,18.16
2022-08-10T04:36:24.067Z,18.17
2022-08-10T04:37:17.470Z,18.17
2022-08-10T04:38:17.472Z,18.18
2022-08-10T04:39:18.451Z,18.19
2022-08-10T04:40:29.901Z,18.20
2022-08-10T04:41:25.163Z,18.21
2022-08-10T04:42:18.673Z,18.22
2022-08-10T04:43:18.689Z,18.23
2022-08-10T04:44:17.506Z,18.24
2022-08-10T04:45:17.384Z,18.25
2022-08-10T04:46:56.120Z,18.26
2022-08-10T04:47:57.714Z,18.27
2022-08-10T04:48:40.466Z,18.29
2022-08-10T04:49:56.306Z,18.30
2022-08-10T04:50:19.290Z,18.32
2022-08-10T04:51:18.969Z,18.33
2022-08-10T04:52:25.332Z,18.35
2022-08-10T04:53:17.303Z,18.37
2022-08-10T04:54:17.272Z,18.38
2022-08-10T04:55:17.456Z,18.40
2022-08-10T04:56:17.709Z,18.41
2022-08-10T04:57:23.546Z,18.43
2022-08-10T04:58:24.331Z,18.45
2022-08-10T04:59:17.193Z,18.47
2022-08-10T05:00:19.355Z,18.49
2022-08-10T05:01:19.718Z,18.51
2022-08-10T05:02:30.002Z,18.52
2022-08-10T05:03:19.653Z,18.54
2022-08-10T05:04:36.730Z,18.56
2022-08-10T05:05:18.666Z,18.58
2022-08-10T05:06:17.102Z,18.60
2022-08-10T05:07:18.365Z,18.62
2022-08-10T05:08:17.105Z,18.64
2022-08-10T05:09:17.046Z,18.66
2022-08-10T05:10:23.668Z,18.69
2022-08-10T05:11:24.193Z,18.72
2022-08-10T05:12:18.544Z,18.74
2022-08-10T05:13:17.004Z,18.77
2022-08-10T05:14:17.013Z,18.80
2022-08-10T05:15:24.261Z,18.83
2022-08-10T05:16:18.560Z,18.86
2022-08-10T05:17:18.747Z,18.89
2022-08-10T05:18:16.950Z,18.92
2022-08-10T05:19:16.914Z,18.95
2022-08-10T05:20:17.323Z,18.98
2022-08-10T05:22:02.175Z,19.01
2022-08-10T05:22:18.154Z,19.03
2022-08-10T05:23:16.933Z,19.06
2022-08-10T05:24:16.860Z,19.08
2022-08-10T05:25:17.899Z,19.10
2022-08-10T05:26:16.832Z,19.12
2022-08-10T05:27:23.140Z,19.13
2022-08-10T05:28:16.809Z,19.15
2022-08-10T05:29:16.830Z,19.17
2022-08-10T05:30:17.063Z,19.19
2022-08-10T05:31:17.774Z,19.21
2022-08-10T05:32:18.590Z,19.22
2022-08-10T05:33:23.050Z,19.22
2022-08-10T05:34:20.454Z,19.23
2022-08-10T05:35:17.045Z,19.23
2022-08-10T05:36:16.734Z,19.23
2022-08-10T05:38:11.847Z,19.23
2022-08-10T05:38:17.998Z,19.24
2022-08-10T05:39:30.384Z,19.24
2022-08-10T05:40:18.165Z,19.26
2022-08-10T05:41:16.948Z,19.27
2022-08-10T05:42:16.991Z,19.28
2022-08-10T05:43:17.979Z,19.29
2022-08-10T05:44:22.921Z,19.31
2022-08-10T05:45:25.072Z,19.32
2022-08-10T05:46:21.106Z,19.33
2022-08-10T05:47:17.557Z,19.33
2022-08-10T05:48:41.845Z,19.34
2022-08-10T05:49:18.534Z,19.34
2022-08-10T05:50:16.535Z,19.35
2022-08-10T05:51:23.676Z,19.36
2022-08-10T05:52:16.495Z,19.37
2022-08-10T05:54:04.161Z,19.38
2022-08-10T05:54:17.553Z,19.39
2022-08-10T05:55:17.278Z,19.41
2022-08-10T05:56:24.549Z,19.43
2022-08-10T05:57:22.798Z,19.45
2022-08-10T05:58:16.494Z,19.46
2022-08-10T05:59:16.450Z,19.48
2022-08-10T06:00:37.194Z,19.50
2022-08-10T06:01:17.931Z,19.52
2022-08-10T06:02:32.957Z,19.54
2022-08-10T06:03:18.270Z,19.57
2022-08-10T06:04:17.886Z,19.59
2022-08-10T06:05:16.623Z,19.62
2022-08-10T06:06:16.385Z,19.63
2022-08-10T06:07:22.973Z,19.65
2022-08-10T06:08:16.922Z,19.66
2022-08-10T06:09:16.292Z,19.67
2022-08-10T06:10:31.584Z,19.68
2022-08-10T06:12:28.260Z,19.70
2022-08-10T06:12:28.913Z,19.72
2022-08-10T06:13:23.736Z,19.74
2022-08-10T06:14:19.210Z,19.76
2022-08-10T06:15:21.901Z,19.78
2022-08-10T06:16:18.446Z,19.79
2022-08-10T06:17:17.402Z,19.80
2022-08-10T06:18:23.607Z,19.81
2022-08-10T06:19:17.295Z,19.83
2022-08-10T06:20:16.138Z,19.84
2022-08-10T06:21:16.129Z,19.85
2022-08-10T06:22:16.129Z,19.86
2022-08-10T06:23:17.077Z,19.87
2022-08-10T06:24:22.410Z,19.89
2022-08-10T06:26:08.342Z,19.90
2022-08-10T06:26:21.385Z,19.92
2022-08-10T06:27:16.115Z,19.94
2022-08-10T06:28:16.041Z,19.97
2022-08-10T06:29:16.333Z,19.99
2022-08-10T06:30:22.568Z,20.02
2022-08-10T06:31:17.168Z,20.04
2022-08-10T06:32:16.347Z,20.07
2022-08-10T06:33:16.982Z,20.09
2022-08-10T06:34:15.957Z,20.11
2022-08-10T06:35:16.898Z,20.13
2022-08-10T06:36:23.285Z,20.15
2022-08-10T06:37:15.939Z,20.17
2022-08-10T06:38:15.907Z,20.19
2022-08-10T06:40:18.486Z,20.22
2022-08-10T06:41:22.149Z,20.24
2022-08-10T06:42:18.615Z,20.25
2022-08-10T06:43:15.841Z,20.27
2022-08-10T06:44:16.037Z,20.30
2022-08-10T06:45:15.809Z,20.32
2022-08-10T06:46:15.839Z,20.34
2022-08-10T06:47:23.341Z,20.37
2022-08-10T06:48:15.782Z,20.39
2022-08-10T06:49:15.769Z,20.41
2022-08-10T06:50:17.485Z,20.44
2022-08-10T06:51:17.069Z,20.46
2022-08-10T06:52:18.398Z,20.48
2022-08-10T06:53:22.962Z,20.51
2022-08-10T06:54:17.178Z,20.53
2022-08-10T06:55:16.802Z,20.56
2022-08-10T06:56:15.939Z,20.58
2022-08-10T06:57:18.518Z,20.61
2022-08-10T06:58:23.789Z,20.63
2022-08-10T06:59:21.906Z,20.66
2022-08-10T07:00:20.429Z,20.68
2022-08-10T07:01:15.697Z,20.70
2022-08-10T07:02:15.658Z,20.72
2022-08-10T07:03:22.396Z,20.74
2022-08-10T07:04:15.600Z,20.77
2022-08-10T07:05:15.601Z,20.79
2022-08-10T07:06:15.826Z,20.82
2022-08-10T07:07:15.795Z,20.85
2022-08-10T07:08:15.802Z,20.88
2022-08-10T07:09:22.755Z,20.91
2022-08-10T07:10:15.789Z,20.95
2022-08-10T07:11:15.510Z,20.98
2022-08-10T07:12:15.510Z,21.02
2022-08-10T07:13:15.511Z,21.06
2022-08-10T07:14:23.051Z,21.09
2022-08-10T07:15:15.484Z,21.13
2022-08-10T07:16:15.697Z,21.17
2022-08-10T07:17:16.670Z,21.22
2022-08-10T07:18:15.690Z,21.25
2022-08-10T07:19:21.901Z,21.29
2022-08-10T07:20:15.460Z,21.32
2022-08-10T07:21:16.350Z,21.35
2022-08-10T07:23:01.412Z,21.37
2022-08-10T07:23:58.120Z,21.39
2022-08-10T07:24:23.574Z,21.41
2022-08-10T07:25:15.377Z,21.42
2022-08-10T07:26:15.300Z,21.44
2022-08-10T07:27:15.323Z,21.45
2022-08-10T07:28:15.258Z,21.47
2022-08-10T07:29:52.759Z,21.49
2022-08-10T07:30:24.440Z,21.52
2022-08-10T07:31:56.247Z,21.54
2022-08-10T07:32:16.258Z,21.56
2022-08-10T07:33:15.237Z,21.59
2022-08-10T07:34:21.880Z,21.62
2022-08-10T07:35:16.701Z,21.65
2022-08-10T07:36:22.430Z,21.68
2022-08-10T07:37:15.675Z,21.71
2022-08-10T07:38:15.689Z,21.74
2022-08-10T07:39:15.415Z,21.77
2022-08-10T07:40:17.126Z,21.80
2022-08-10T07:41:16.264Z,21.82
2022-08-10T07:42:21.405Z,21.84
2022-08-10T07:43:15.140Z,21.85
2022-08-10T07:44:15.121Z,21.87
2022-08-10T07:45:15.084Z,21.88
2022-08-10T07:46:15.082Z,21.89
2022-08-10T07:47:16.024Z,21.89
2022-08-10T07:48:21.341Z,21.90
2022-08-10T07:49:19.500Z,21.90
2022-08-10T07:50:15.017Z,21.91
2022-08-10T07:51:14.991Z,21.91
2022-08-10T07:52:15.261Z,21.92
2022-08-10T07:53:21.252Z,21.94
2022-08-10T07:54:14.965Z,21.96
2022-08-10T07:55:14.927Z,21.98
2022-08-10T07:56:32.217Z,22.00
2022-08-10T07:57:31.038Z,22.03
2022-08-10T07:58:16.382Z,22.05
2022-08-10T07:59:22.405Z,22.07
2022-08-10T08:00:16.086Z,22.09
2022-08-10T08:01:14.912Z,22.11
2022-08-10T08:02:14.972Z,22.13
2022-08-10T08:03:15.833Z,22.15
2022-08-10T08:04:14.845Z,22.17
2022-08-10T08:05:57.648Z,22.20
2022-08-10T08:06:15.814Z,22.21
2022-08-10T08:07:20.792Z,22.22
2022-08-10T08:08:16.346Z,22.24
2022-08-10T08:09:15.080Z,22.24
2022-08-10T08:10:21.704Z,22.24
2022-08-10T08:11:25.981Z,22.23
2022-08-10T08:12:16.235Z,22.23
2022-08-10T08:13:15.093Z,22.24
2022-08-10T08:14:15.672Z,22.25
2022-08-10T08:16:16.987Z,22.27
2022-08-10T08:16:23.020Z,22.29
2022-08-10T08:17:14.673Z,22.32
2022-08-10T08:18:15.615Z,22.34
2022-08-10T08:19:35.471Z,22.36
2022-08-10T08:20:16.223Z,22.39
2022-08-10T08:24:02.636Z,22.42
2022-08-10T08:24:06.051Z,22.47
2022-08-10T08:24:06.967Z,22.44
2022-08-10T08:24:33.015Z,22.50
2022-08-10T08:25:16.091Z,22.52
2022-08-10T08:26:20.828Z,22.54
2022-08-10T08:27:14.569Z,22.57
2022-08-10T08:28:15.489Z,22.60
2022-08-10T08:29:14.782Z,22.62
2022-08-10T08:30:15.660Z,22.65
2022-08-10T08:31:23.451Z,22.67
2022-08-10T08:32:14.542Z,22.70
2022-08-10T08:33:20.045Z,22.72
2022-08-10T08:34:15.452Z,22.75
2022-08-10T08:35:14.776Z,22.78
2022-08-10T08:36:14.422Z,22.81
2022-08-10T08:38:32.123Z,22.87
2022-08-10T08:38:33.326Z,22.84
2022-08-10T08:39:16.028Z,22.89
2022-08-10T08:40:14.379Z,22.92
2022-08-10T08:41:14.673Z,22.94
2022-08-10T08:42:20.955Z,22.96
2022-08-10T08:43:14.378Z,22.98
2022-08-10T08:44:14.616Z,23.00
2022-08-10T08:45:14.319Z,23.03
2022-08-10T08:46:14.301Z,23.05
2022-08-10T08:48:04.087Z,23.08
2022-08-10T08:48:15.291Z,23.11
2022-08-10T08:50:07.458Z,23.13
2022-08-10T08:50:15.592Z,23.15
2022-08-10T08:51:14.227Z,23.17
2022-08-10T08:52:21.464Z,23.19
2022-08-10T08:53:23.958Z,23.22
2022-08-10T08:54:15.208Z,23.24
2022-08-10T08:55:50.180Z,23.27
2022-08-10T08:56:16.135Z,23.30
2022-08-10T08:57:49.458Z,23.32
2022-08-10T08:58:15.164Z,23.34
2022-08-10T08:59:14.140Z,23.37
2022-08-10T09:00:14.714Z,23.39
2022-08-10T09:01:14.111Z,23.41
2022-08-10T09:02:14.177Z,23.43
2022-08-10T09:03:22.979Z,23.45
2022-08-10T09:04:19.700Z,23.47
2022-08-10T09:05:15.838Z,23.48
2022-08-10T09:06:14.458Z,23.50
2022-08-10T09:07:59.426Z,23.52
2022-08-10T09:08:15.009Z,23.55
2022-08-10T09:09:20.316Z,23.57
2022-08-10T09:10:14.298Z,23.60
2022-08-10T09:11:14.233Z,23.63
2022-08-10T09:12:13.992Z,23.65
2022-08-10T09:13:15.127Z,23.68
2022-08-10T09:14:25.562Z,23.71
2022-08-10T09:15:40.803Z,23.73
2022-08-10T09:16:15.862Z,23.76
2022-08-10T09:17:13.899Z,23.78
2022-08-10T09:18:15.067Z,23.80
2022-08-10T09:19:19.629Z,23.82
2022-08-10T09:20:21.189Z,23.84
2022-08-10T09:21:15.128Z,23.86
2022-08-10T09:22:18.101Z,23.88
2022-08-10T09:23:14.983Z,23.90
2022-08-10T09:24:16.487Z,23.93
2022-08-10T09:25:15.578Z,23.95
2022-08-10T09:26:21.006Z,23.97
2022-08-10T09:27:14.943Z,23.99
2022-08-10T09:28:13.863Z,24.01
2022-08-10T09:29:14.086Z,24.03
2022-08-10T09:30:14.138Z,24.06
2022-08-10T09:31:23.292Z,24.08
2022-08-10T09:36:15.736Z,24.10
2022-08-10T09:36:22.291Z,24.14
2022-08-10T09:36:27.000Z,24.17
2022-08-10T09:36:29.808Z,24.12
2022-08-10T09:36:32.541Z,24.20
2022-08-10T09:37:21.823Z,24.24
2022-08-10T09:38:14.842Z,24.27
2022-08-10T09:40:12.632Z,24.30
2022-08-10T09:40:59.414Z,24.33
2022-08-10T09:41:14.788Z,24.36
2022-08-10T09:42:14.693Z,24.38
2022-08-10T09:43:26.101Z,24.41
2022-08-10T09:44:15.096Z,24.43
2022-08-10T09:45:13.553Z,24.46
2022-08-10T09:46:14.557Z,24.48
2022-08-10T09:47:13.832Z,24.50
2022-08-10T09:48:13.803Z,24.53
2022-08-10T09:49:22.430Z,24.55
2022-08-10T09:50:16.168Z,24.57
2022-08-10T09:51:42.169Z,24.59
2022-08-10T09:52:14.464Z,24.61
2022-08-10T09:53:13.769Z,24.62
2022-08-10T09:54:14.924Z,24.64
2022-08-10T09:55:19.771Z,24.66
2022-08-10T09:56:18.538Z,24.67
2022-08-10T09:58:15.630Z,24.71
2022-08-10T09:59:29.125Z,24.74
2022-08-10T10:00:20.626Z,24.76
2022-08-10T10:01:57.736Z,24.78
2022-08-10T10:02:15.403Z,24.80
2022-08-10T10:03:13.501Z,24.81
2022-08-10T10:04:14.521Z,24.82
2022-08-10T10:05:20.474Z,24.83
2022-08-10T10:06:13.918Z,24.85
2022-08-10T10:07:14.368Z,24.86
2022-08-10T10:08:13.357Z,24.88
2022-08-10T10:09:13.340Z,24.90
2022-08-10T10:10:13.596Z,24.92
2022-08-10T10:11:19.517Z,24.93
2022-08-10T10:12:13.805Z,24.94
2022-08-10T10:13:14.309Z,24.96
2022-08-10T10:14:14.408Z,24.98
2022-08-10T10:15:24.414Z,24.99
2022-08-10T10:16:20.973Z,25.01
2022-08-10T10:17:13.458Z,25.03
2022-08-10T10:18:13.152Z,25.06
2022-08-10T10:19:13.487Z,25.09
2022-08-10T10:20:13.204Z,25.12
2022-08-10T10:21:54.183Z,25.15
2022-08-10T10:22:15.360Z,25.18
2022-08-10T10:23:13.404Z,25.21
2022-08-10T10:24:19.827Z,25.23
2022-08-10T10:25:19.817Z,25.26
2022-08-10T10:26:20.844Z,25.27
2022-08-10T10:27:16.342Z,25.29
2022-08-10T10:28:13.318Z,25.30
2022-08-10T10:29:37.678Z,25.31
2022-08-10T10:30:15.016Z,25.32
2022-08-10T10:31:16.368Z,25.33
2022-08-10T10:32:19.257Z,25.34
2022-08-10T10:33:13.308Z,25.35
2022-08-10T10:34:12.941Z,25.36
2022-08-10T10:35:13.282Z,25.37
2022-08-10T10:36:13.278Z,25.37
2022-08-10T10:37:19.242Z,25.38
2022-08-10T10:38:13.465Z,25.39
2022-08-10T10:39:14.913Z,25.39
2022-08-10T10:40:13.340Z,25.40
2022-08-10T10:41:13.189Z,25.40
2022-08-10T10:42:42.221Z,25.41
2022-08-10T10:43:15.240Z,25.42
2022-08-10T10:44:12.844Z,25.43
2022-08-10T10:45:13.141Z,25.45
2022-08-10T10:46:12.841Z,25.46
2022-08-10T10:47:19.358Z,25.48
2022-08-10T10:48:23.802Z,25.50
2022-08-10T10:49:14.314Z,25.52
2022-08-10T10:50:13.011Z,25.55
2022-08-10T10:51:12.730Z,25.57
2022-08-10T10:52:13.068Z,25.60
2022-08-10T10:53:19.245Z,25.62
2022-08-10T10:54:13.058Z,25.65
2022-08-10T10:55:13.004Z,25.67
2022-08-10T10:56:14.138Z,25.70
2022-08-10T10:57:12.656Z,25.72
2022-08-10T10:58:22.439Z,25.74
2022-08-10T10:59:33.272Z,25.76
2022-08-10T11:00:14.635Z,25.77
2022-08-10T11:01:12.654Z,25.79
2022-08-10T11:02:12.641Z,25.81
2022-08-10T11:03:22.110Z,25.83
2022-08-10T11:04:13.575Z,25.85
2022-08-10T11:05:12.879Z,25.87
2022-08-10T11:06:12.562Z,25.89
2022-08-10T11:07:13.128Z,25.90
2022-08-10T11:08:14.562Z,25.91
2022-08-10T11:10:05.967Z,25.92
2022-08-10T11:10:32.033Z,25.93
2022-08-10T11:11:20.390Z,25.95
2022-08-10T11:12:14.492Z,25.97
2022-08-10T11:14:26.907Z,26.02
2022-08-10T11:14:28.536Z,25.99
2022-08-10T11:15:20.510Z,26.04
2022-08-10T11:16:12.683Z,26.07
2022-08-10T11:17:13.412Z,26.09
2022-08-10T11:18:14.001Z,26.11
2022-08-10T11:19:12.406Z,26.13
2022-08-10T11:20:12.622Z,26.14
2022-08-10T11:21:18.631Z,26.16
2022-08-10T11:22:16.282Z,26.17
2022-08-10T11:23:12.315Z,26.19
2022-08-10T11:24:48.271Z,26.21
2022-08-10T11:25:15.419Z,26.22
2022-08-10T11:26:20.422Z,26.24
2022-08-10T11:27:21.555Z,26.26
2022-08-10T11:28:13.764Z,26.27
2022-08-10T11:29:12.530Z,26.29
2022-08-10T11:30:12.232Z,26.31
2022-08-10T11:31:18.513Z,26.34
2022-08-10T11:32:20.562Z,26.36
2022-08-10T11:33:13.949Z,26.37
2022-08-10T11:34:49.102Z,26.39
2022-08-10T11:35:13.344Z,26.40
2022-08-10T11:36:12.172Z,26.42
2022-08-10T11:37:18.467Z,26.43
2022-08-10T11:38:31.785Z,26.44
2022-08-10T11:39:14.637Z,26.45
2022-08-10T11:40:12.178Z,26.47
2022-08-10T11:42:06.067Z,26.48
2022-08-10T11:42:24.262Z,26.49
2022-08-10T11:43:21.083Z,26.50
2022-08-10T11:44:13.424Z,26.52
2022-08-10T11:45:13.482Z,26.53
2022-08-10T11:46:16.467Z,26.55
2022-08-10T11:47:13.575Z,26.57
2022-08-10T11:48:52.898Z,26.59
2022-08-10T11:49:13.299Z,26.61
2022-08-10T11:50:12.266Z,26.63
2022-08-10T11:51:14.070Z,26.66
2022-08-10T11:52:11.949Z,26.69
2022-08-10T11:53:12.240Z,26.71
2022-08-10T11:54:18.698Z,26.73
2022-08-10T11:55:13.434Z,26.75
2022-08-10T11:56:11.895Z,26.77
2022-08-10T11:57:12.341Z,26.79
2022-08-10T11:58:12.157Z,26.81
2022-08-10T11:59:16.596Z,26.84
2022-08-10T12:00:18.178Z,26.86
2022-08-10T12:01:11.835Z,26.88
2022-08-10T12:02:11.897Z,26.91
2022-08-10T12:03:12.381Z,26.94
2022-08-10T12:04:12.728Z,26.97
2022-08-10T12:05:18.762Z,27.00
2022-08-10T12:06:11.778Z,27.02
2022-08-10T12:10:04.796Z,27.04
2022-08-10T12:10:06.782Z,27.04
2022-08-10T12:10:07.273Z,27.04
2022-08-10T12:10:19.029Z,27.03
2022-08-10T12:11:11.967Z,27.02
2022-08-10T12:12:13.217Z,27.01
2022-08-10T12:13:12.648Z,27.01
2022-08-10T12:14:28.077Z,27.01
2022-08-10T12:15:20.460Z,27.02
2022-08-10T12:16:11.641Z,27.03
2022-08-10T12:17:11.649Z,27.05
2022-08-10T12:18:12.580Z,27.07
2022-08-10T12:19:11.681Z,27.09
2022-08-10T12:20:17.940Z,27.10
2022-08-10T12:21:11.698Z,27.11
2022-08-10T12:22:13.693Z,27.12
2022-08-10T12:23:11.551Z,27.12
2022-08-10T12:24:11.549Z,27.12
2022-08-10T12:25:11.537Z,27.13
2022-08-10T12:26:18.778Z,27.13
2022-08-10T12:27:13.346Z,27.14
2022-08-10T12:28:11.519Z,27.14
2022-08-10T12:29:12.438Z,27.15
2022-08-10T12:30:12.679Z,27.15
2022-08-10T12:31:18.875Z,27.16
2022-08-10T12:32:11.455Z,27.16
2022-08-10T12:33:11.452Z,27.15
2022-08-10T12:34:12.384Z,27.15
2022-08-10T12:35:11.414Z,27.16
2022-08-10T12:36:19.165Z,27.18
2022-08-10T12:37:11.382Z,27.20
2022-08-10T12:38:11.625Z,27.22
2022-08-10T12:39:11.712Z,27.25
2022-08-10T12:41:18.890Z,27.30
2022-08-10T12:42:37.043Z,27.33
2022-08-10T12:44:03.889Z,27.36
2022-08-10T12:44:14.508Z,27.39
2022-08-10T12:45:11.306Z,27.42
2022-08-10T12:46:17.550Z,27.44
2022-08-10T12:47:13.946Z,27.46
2022-08-10T12:48:11.254Z,27.48
2022-08-10T12:49:15.364Z,27.50
2022-08-10T12:50:29.821Z,27.52
2022-08-10T12:51:12.874Z,27.54
2022-08-10T12:52:17.451Z,27.56
2022-08-10T12:53:11.199Z,27.59
2022-08-10T12:54:11.234Z,27.61
2022-08-10T12:55:12.155Z,27.62
2022-08-10T12:56:11.145Z,27.63